createdAt,value
2022-10-05T00:01:21.857Z,9.38
2022-10-05T00:06:15.219Z,11.85
2022-10-05T00:08:42.710Z,10.73
2022-10-05T00:11:12.228Z,10.45
2022-10-05T00:13:40.829Z,10.73
2022-10-05T00:16:10.442Z,8.32
2022-10-05T00:18:40.206Z,9.88
2022-10-05T00:21:18.334Z,12.10
2022-10-05T00:23:44.765Z,8.40
2022-10-05T00:26:16.970Z,9.20
2022-10-05T00:28:43.422Z,5.88
2022-10-05T00:31:32.715Z,8.85
2022-10-05T00:33:59.298Z,9.27
2022-10-05T00:36:26.262Z,8.35
2022-10-05T00:38:53.944Z,7.35
2022-10-05T00:41:44.750Z,7.53
2022-10-05T00:44:29.928Z,4.75
2022-10-05T00:47:05.412Z,10.18
2022-10-05T00:49:50.129Z,7.78
2022-10-05T00:52:26.532Z,6.78
2022-10-05T00:55:03.183Z,11.43
2022-10-05T00:57:49.844Z,11.48
2022-10-05T01:00:22.202Z,7.93
2022-10-05T01:03:14.555Z,11.75
2022-10-05T01:05:47.044Z,12.90
2022-10-05T01:08:37.189Z,8.63
2022-10-05T01:11:32.365Z,13.95
2022-10-05T01:14:12.902Z,20.42
2022-10-05T01:17:17.015Z,87.47
2022-10-05T01:20:06.539Z,56.28
2022-10-05T01:22:55.582Z,46.20
2022-10-05T01:25:48.617Z,19.80
2022-10-05T01:28:28.651Z,10.98
2022-10-05T01:31:09.079Z,8.05
2022-10-05T01:33:46.285Z,11.63
2022-10-05T01:36:30.948Z,8.48
2022-10-05T01:39:19.065Z,7.40
2022-10-05T01:42:12.295Z,11.02
2022-10-05T01:44:51.801Z,7.53
2022-10-05T01:47:36.518Z,8.38
2022-10-05T01:50:23.940Z,5.88
2022-10-05T01:53:11.637Z,10.20
2022-10-05T01:56:11.181Z,7.50
2022-10-05T01:59:06.458Z,11.35
2022-10-05T02:01:43.616Z,9.07
2022-10-05T02:04:56.472Z,5.95
2022-10-05T02:07:18.091Z,5.15
2022-10-05T02:10:06.016Z,6.72
2022-10-05T02:12:37.849Z,8.30
2022-10-05T02:15:32.376Z,6.90
2022-10-05T02:18:12.199Z,9.07
2022-10-05T02:20:42.322Z,9.20
2022-10-05T02:23:14.401Z,9.23
2022-10-05T02:25:46.019Z,6.00
2022-10-05T02:28:16.638Z,6.68
2022-10-05T02:30:58.542Z,5.75
2022-10-05T02:33:33.759Z,5.95
2022-10-05T02:36:19.278Z,5.90
2022-10-05T02:39:05.229Z,6.22
2022-10-05T02:41:51.153Z,10.85
2022-10-05T02:44:33.212Z,7.15
2022-10-05T02:47:10.421Z,7.25
2022-10-05T02:50:14.973Z,6.85
2022-10-05T02:55:24.789Z,5.65
2022-10-05T02:58:11.833Z,5.30
2022-10-05T03:00:53.360Z,7.57
2022-10-05T03:03:23.170Z,8.70
2022-10-05T03:06:03.532Z,7.75
2022-10-05T03:08:37.516Z,7.95
2022-10-05T03:11:34.907Z,11.95
2022-10-05T03:14:40.821Z,8.82
2022-10-05T03:17:23.624Z,10.40
2022-10-05T03:20:03.340Z,11.60
2022-10-05T03:22:52.792Z,11.50
2022-10-05T03:25:19.286Z,11.75
2022-10-05T03:28:02.611Z,10.07
2022-10-05T03:30:38.393Z,11.13
2022-10-05T03:33:13.916Z,12.73
2022-10-05T03:36:11.486Z,14.23
2022-10-05T03:38:57.560Z,13.15
2022-10-05T03:41:47.267Z,8.73
2022-10-05T03:44:35.328Z,12.45
2022-10-05T03:47:14.434Z,11.48
2022-10-05T03:50:06.199Z,11.45
2022-10-05T03:52:45.560Z,9.45
2022-10-05T03:55:39.309Z,9.10
2022-10-05T03:58:13.685Z,11.65
2022-10-05T04:00:43.614Z,9.57
2022-10-05T04:03:21.976Z,7.93
2022-10-05T04:06:00.861Z,7.43
2022-10-05T04:08:48.081Z,9.10
2022-10-05T04:11:24.821Z,8.93
2022-10-05T04:14:13.029Z,9.95
2022-10-05T04:17:03.051Z,8.93
2022-10-05T04:19:58.989Z,7.82
2022-10-05T04:22:31.946Z,12.95
2022-10-05T04:25:14.487Z,5.15
2022-10-05T04:27:57.379Z,5.00
2022-10-05T04:30:23.813Z,10.57
2022-10-05T04:32:53.975Z,5.43
2022-10-05T04:35:45.180Z,6.68
2022-10-05T04:38:29.873Z,8.80
2022-10-05T04:41:30.066Z,6.35
2022-10-05T04:44:13.543Z,4.88
2022-10-05T04:46:55.273Z,6.10
2022-10-05T04:49:34.628Z,6.57
2022-10-05T04:52:15.710Z,6.63
2022-10-05T04:54:56.832Z,6.07
2022-10-05T04:57:37.915Z,6.30
2022-10-05T05:00:22.094Z,8.05
2022-10-05T05:03:00.629Z,6.85
2022-10-05T05:06:16.306Z,5.15
2022-10-05T05:09:25.927Z,4.95
2022-10-05T05:12:19.638Z,6.00
2022-10-05T05:14:49.117Z,5.07
2022-10-05T05:17:46.755Z,7.72
2022-10-05T05:20:20.640Z,7.88
2022-10-05T05:22:52.270Z,9.00
2022-10-05T05:25:49.677Z,4.35
2022-10-05T05:28:31.921Z,13.90
2022-10-05T05:31:16.711Z,6.22
2022-10-05T05:34:12.898Z,10.68
2022-10-05T05:36:50.758Z,13.88
2022-10-05T05:39:41.853Z,7.20
2022-10-05T05:42:39.452Z,10.00
2022-10-05T05:45:21.086Z,7.60
2022-10-05T05:47:54.748Z,8.85
2022-10-05T05:52:57.474Z,11.70
2022-10-05T05:55:34.652Z,8.60
2022-10-05T05:58:05.869Z,10.27
2022-10-05T06:00:44.990Z,9.93
2022-10-05T06:03:23.131Z,11.40
2022-10-05T06:05:49.855Z,12.70
2022-10-05T06:08:39.797Z,14.82
2022-10-05T06:11:22.826Z,15.40
2022-10-05T06:13:49.556Z,14.93
2022-10-05T06:16:42.795Z,19.00
2022-10-05T06:19:13.909Z,15.63
2022-10-05T06:21:50.874Z,16.35
2022-10-05T06:24:21.463Z,16.90
2022-10-05T06:27:06.306Z,16.92
2022-10-05T06:30:15.671Z,16.42
2022-10-05T06:32:45.058Z,12.20
2022-10-05T06:35:23.635Z,10.27
2022-10-05T06:38:08.865Z,7.13
2022-10-05T06:40:40.810Z,5.97
2022-10-05T06:43:13.205Z,4.50
2022-10-05T06:46:07.166Z,5.50
2022-10-05T06:49:18.573Z,7.57
2022-10-05T06:52:10.801Z,5.80
2022-10-05T06:54:58.512Z,5.57
2022-10-05T06:57:38.421Z,5.68
2022-10-05T07:00:07.399Z,5.57
2022-10-05T07:02:45.738Z,4.18
2022-10-05T07:05:30.114Z,7.10
2022-10-05T07:08:01.233Z,3.88
2022-10-05T07:10:30.374Z,4.18
2022-10-05T07:13:24.906Z,3.90
2022-10-05T07:16:20.573Z,3.75
2022-10-05T07:19:01.924Z,4.68
2022-10-05T07:21:39.531Z,3.47
2022-10-05T07:24:34.544Z,4.15
2022-10-05T07:27:14.767Z,3.47
2022-10-05T07:29:52.953Z,3.20
2022-10-05T07:32:22.374Z,3.42
2022-10-05T07:35:01.212Z,2.40
2022-10-05T07:37:55.120Z,4.38
2022-10-05T07:40:32.491Z,3.45
2022-10-05T07:42:59.936Z,4.38
2022-10-05T07:45:41.099Z,3.58
2022-10-05T07:48:49.305Z,5.47
2022-10-05T07:51:24.137Z,4.63
2022-10-05T07:54:13.654Z,7.45
2022-10-05T07:56:44.956Z,4.57
2022-10-05T07:59:40.339Z,6.28
2022-10-05T08:02:44.501Z,5.82
2022-10-05T08:05:20.866Z,3.10
2022-10-05T08:07:52.199Z,3.90
2022-10-05T08:10:32.896Z,4.18
2022-10-05T08:13:10.388Z,4.38
2022-10-05T08:15:48.374Z,4.97
2022-10-05T08:18:23.790Z,9.45
2022-10-05T08:20:57.626Z,4.47
2022-10-05T08:24:05.744Z,6.03
2022-10-05T08:26:49.727Z,3.35
2022-10-05T08:32:05.120Z,5.38
2022-10-05T08:34:34.303Z,3.42
2022-10-05T08:37:06.956Z,2.90
2022-10-05T08:39:46.072Z,2.33
2022-10-05T08:42:30.156Z,4.20
2022-10-05T08:47:27.004Z,3.53
2022-10-05T08:50:17.887Z,7.15
2022-10-05T08:53:12.287Z,3.10
2022-10-05T08:56:19.861Z,3.08
2022-10-05T08:59:05.679Z,3.17
2022-10-05T09:01:38.395Z,2.42
2022-10-05T09:04:42.749Z,2.08
2022-10-05T09:07:18.263Z,4.13
2022-10-05T09:10:15.945Z,8.65
2022-10-05T09:13:16.048Z,3.65
2022-10-05T09:15:54.738Z,5.10
2022-10-05T09:18:59.796Z,3.65
2022-10-05T09:21:44.692Z,5.63
2022-10-05T09:24:14.477Z,2.45
2022-10-05T09:26:40.912Z,4.53
2022-10-05T09:29:26.195Z,6.43
2022-10-05T09:31:55.653Z,3.72
2022-10-05T09:34:59.659Z,3.78
2022-10-05T09:37:41.446Z,3.00
2022-10-05T09:40:10.983Z,3.00
2022-10-05T09:42:55.530Z,3.50
2022-10-05T09:45:28.231Z,2.92
2022-10-05T09:48:10.062Z,2.70
2022-10-05T09:50:57.303Z,3.67
2022-10-05T09:53:41.760Z,7.90
2022-10-05T09:56:34.456Z,2.25
2022-10-05T09:59:25.571Z,3.00
2022-10-05T10:02:27.635Z,2.92
2022-10-05T10:05:15.496Z,4.28
2022-10-05T10:07:55.616Z,2.42
2022-10-05T10:10:43.800Z,3.75
2022-10-05T10:13:28.616Z,2.83
2022-10-05T10:16:23.588Z,2.83
2022-10-05T10:19:10.320Z,8.82
2022-10-05T10:21:39.802Z,3.53
2022-10-05T10:24:24.655Z,2.90
2022-10-05T10:27:12.293Z,1.92
2022-10-05T10:29:50.554Z,2.80
2022-10-05T10:32:26.061Z,5.10
2022-10-05T10:35:20.348Z,1.85
2022-10-05T10:37:53.066Z,2.70
2022-10-05T10:40:28.516Z,1.75
2022-10-05T10:43:22.244Z,8.57
2022-10-05T10:46:06.643Z,3.92
2022-10-05T10:48:51.924Z,1.83
2022-10-05T10:51:48.132Z,2.03
2022-10-05T10:54:42.551Z,13.02
2022-10-05T10:57:15.136Z,1.65
2022-10-05T10:59:44.611Z,4.07
2022-10-05T11:02:37.327Z,5.90
2022-10-05T11:05:18.134Z,3.08
2022-10-05T11:07:44.491Z,4.47
2022-10-05T11:10:14.008Z,6.25
2022-10-05T11:13:05.297Z,7.40
2022-10-05T11:15:50.554Z,1.60
2022-10-05T11:18:34.731Z,2.97
2022-10-05T11:21:36.816Z,2.45
2022-10-05T11:24:27.931Z,3.60
2022-10-05T11:30:13.800Z,5.65
2022-10-05T11:32:49.293Z,3.10
2022-10-05T11:35:43.757Z,8.48
2022-10-05T11:38:52.023Z,4.50
2022-10-05T11:41:42.741Z,3.63
2022-10-05T11:44:15.788Z,2.58
2022-10-05T11:47:11.409Z,6.95
2022-10-05T11:49:37.783Z,3.95
2022-10-05T11:52:10.337Z,4.05
2022-10-05T11:57:42.858Z,5.47
2022-10-05T12:00:16.116Z,5.50
2022-10-05T12:03:20.278Z,4.65
2022-10-05T12:06:04.192Z,2.80
2022-10-05T12:08:52.561Z,1.17
2022-10-05T12:11:40.338Z,2.58
2022-10-05T12:14:28.439Z,2.47
2022-10-05T12:16:54.813Z,1.83
2022-10-05T12:19:29.696Z,2.17
2022-10-05T12:22:15.275Z,5.22
2022-10-05T12:24:44.433Z,5.30
2022-10-05T12:27:22.505Z,7.10
2022-10-05T12:29:54.651Z,4.05
2022-10-05T12:32:41.123Z,1.02
2022-10-05T12:35:36.190Z,3.30
2022-10-05T12:38:16.994Z,2.67
2022-10-05T12:41:00.721Z,2.90
2022-10-05T12:43:36.143Z,4.95
2022-10-05T12:46:19.946Z,5.78
2022-10-05T12:49:08.054Z,5.90
2022-10-05T12:51:53.326Z,7.93
2022-10-05T12:54:23.725Z,1.98
2022-10-05T12:57:08.349Z,5.72
2022-10-05T12:59:50.019Z,2.50
2022-10-05T13:02:35.444Z,1.80
2022-10-05T13:05:11.095Z,2.13
2022-10-05T13:07:49.819Z,1.30
2022-10-05T13:10:38.061Z,2.25
2022-10-05T13:13:04.436Z,2.50
2022-10-05T13:15:56.429Z,3.38
2022-10-05T13:18:44.276Z,3.30
2022-10-05T13:21:40.849Z,7.03
2022-10-05T13:24:18.290Z,1.52
2022-10-05T13:26:52.395Z,6.28
2022-10-05T13:29:30.838Z,3.05
2022-10-05T13:32:03.878Z,3.50
2022-10-05T13:34:43.251Z,5.72
2022-10-05T13:37:12.627Z,3.97
2022-10-05T13:39:52.452Z,3.05
2022-10-05T13:42:29.752Z,2.85
2022-10-05T13:45:12.870Z,3.80
2022-10-05T13:48:31.263Z,11.13
2022-10-05T13:51:15.184Z,6.05
2022-10-05T13:53:49.571Z,12.85
2022-10-05T13:56:21.991Z,9.32
2022-10-05T13:58:56.398Z,4.93
2022-10-05T14:01:34.554Z,4.32
2022-10-05T14:04:05.030Z,7.40
2022-10-05T14:06:37.042Z,6.47
2022-10-05T14:09:03.929Z,3.83
2022-10-05T14:11:34.868Z,5.07
2022-10-05T14:14:10.122Z,7.32
2022-10-05T14:16:53.769Z,3.88
2022-10-05T14:19:23.589Z,10.98
2022-10-05T14:21:52.988Z,7.20
2022-10-05T14:24:43.759Z,6.00
2022-10-05T14:27:32.964Z,7.22
2022-10-05T14:30:23.592Z,8.55
2022-10-05T14:33:10.503Z,6.43
2022-10-05T14:35:56.391Z,9.30
2022-10-05T14:38:32.353Z,6.20
2022-10-05T14:41:07.789Z,7.28
2022-10-05T14:43:34.841Z,3.38
2022-10-05T14:46:14.663Z,7.18
2022-10-05T14:48:45.900Z,8.00
2022-10-05T14:51:24.553Z,10.75
2022-10-05T14:53:59.718Z,11.27
2022-10-05T14:56:57.099Z,5.70
2022-10-05T14:59:53.756Z,5.18
2022-10-05T15:02:48.044Z,7.53
2022-10-05T15:07:57.223Z,15.27
2022-10-05T15:10:42.112Z,10.43
2022-10-05T15:13:15.125Z,16.73
2022-10-05T15:15:51.950Z,6.43
2022-10-05T15:18:36.335Z,9.73
2022-10-05T15:21:30.137Z,6.43
2022-10-05T15:24:02.670Z,6.78
2022-10-05T15:26:33.107Z,7.75
2022-10-05T15:29:25.998Z,7.45
2022-10-05T15:32:00.500Z,11.63
2022-10-05T15:34:32.849Z,5.70
2022-10-05T15:37:27.579Z,13.57
2022-10-05T15:39:57.940Z,8.13
2022-10-05T15:42:36.600Z,6.53
2022-10-05T15:45:10.790Z,12.30
2022-10-05T15:48:01.612Z,8.88
2022-10-05T15:50:32.375Z,10.13
2022-10-05T15:53:28.594Z,15.07
2022-10-05T15:56:06.265Z,11.45
2022-10-05T15:58:56.917Z,17.73
2022-10-05T16:01:32.520Z,10.20
2022-10-05T16:04:15.105Z,9.18
2022-10-05T16:07:05.493Z,8.10
2022-10-05T16:09:49.819Z,6.20
2022-10-05T16:12:31.513Z,9.07
2022-10-05T16:17:51.084Z,10.40
2022-10-05T16:20:27.039Z,5.80
2022-10-05T16:23:13.384Z,9.77
2022-10-05T16:26:09.068Z,14.02
2022-10-05T16:28:47.373Z,23.83
2022-10-05T16:31:37.314Z,19.45
2022-10-05T16:34:31.569Z,11.70
2022-10-05T16:37:08.266Z,28.00
2022-10-05T16:39:50.111Z,18.10
2022-10-05T16:42:42.008Z,18.40
2022-10-05T16:45:23.474Z,13.88
2022-10-05T16:47:55.158Z,11.93
2022-10-05T16:50:30.141Z,11.10
2022-10-05T16:53:25.996Z,9.73
2022-10-05T16:55:59.365Z,11.93
2022-10-05T16:58:36.938Z,5.82
2022-10-05T17:01:03.364Z,8.13
2022-10-05T17:04:14.525Z,5.72
2022-10-05T17:06:54.039Z,3.85
2022-10-05T17:09:20.510Z,7.50
2022-10-05T17:12:39.280Z,10.05
2022-10-05T17:15:39.546Z,4.05
2022-10-05T17:18:27.364Z,6.65
2022-10-05T17:21:05.022Z,6.53
2022-10-05T17:23:45.062Z,4.95
2022-10-05T17:26:40.056Z,7.22
2022-10-05T17:29:26.531Z,4.78
2022-10-05T17:32:02.082Z,7.53
2022-10-05T17:34:31.156Z,12.82
2022-10-05T17:37:27.532Z,26.30
2022-10-05T17:39:56.440Z,45.17
2022-10-05T17:42:26.049Z,56.22
2022-10-05T17:45:21.175Z,45.60
2022-10-05T17:48:11.212Z,47.28
2022-10-05T17:50:59.275Z,66.90
2022-10-05T17:54:02.491Z,41.97
2022-10-05T17:56:33.808Z,29.20
2022-10-05T17:59:03.168Z,47.58
2022-10-05T18:01:31.126Z,92.38
2022-10-05T18:04:12.894Z,68.55
2022-10-05T18:06:48.032Z,60.00
2022-10-05T18:09:17.006Z,72.55
2022-10-05T18:11:49.209Z,101.65
2022-10-05T18:14:24.717Z,83.75
2022-10-05T18:17:11.536Z,72.05
2022-10-05T18:19:39.577Z,79.03
2022-10-05T18:22:32.506Z,82.47
2022-10-05T18:25:05.779Z,41.55
2022-10-05T18:27:44.459Z,30.58
2022-10-05T18:30:21.747Z,23.48
2022-10-05T18:33:00.389Z,20.83
2022-10-05T18:35:45.371Z,23.27
2022-10-05T18:38:44.606Z,19.58
2022-10-05T18:41:45.395Z,24.02
2022-10-05T18:44:14.653Z,24.38
2022-10-05T18:46:47.188Z,26.27
2022-10-05T18:49:50.512Z,18.83
2022-10-05T18:52:44.913Z,19.73
2022-10-05T18:58:03.813Z,20.60
2022-10-05T19:01:17.000Z,20.35
2022-10-05T19:03:43.474Z,17.58
2022-10-05T19:06:29.901Z,16.20
2022-10-05T19:09:17.777Z,15.90
2022-10-05T19:11:55.702Z,13.95
2022-10-05T19:14:59.021Z,16.77
2022-10-05T19:17:25.717Z,19.63
2022-10-05T19:20:00.987Z,18.33
2022-10-05T19:22:30.946Z,19.27
2022-10-05T19:25:13.716Z,13.90
2022-10-05T19:28:14.494Z,19.33
2022-10-05T19:30:59.475Z,25.88
2022-10-05T19:33:47.304Z,22.48
2022-10-05T19:36:32.740Z,22.65
2022-10-05T19:39:31.680Z,21.67
2022-10-05T19:42:17.095Z,27.90
2022-10-05T19:44:49.786Z,19.65
2022-10-05T19:47:40.923Z,12.07
2022-10-05T19:50:33.544Z,18.58
2022-10-05T19:53:08.110Z,19.38
2022-10-05T19:55:45.690Z,20.85
2022-10-05T19:58:23.423Z,19.77
2022-10-05T20:01:01.436Z,22.42
2022-10-05T20:03:30.438Z,22.58
2022-10-05T20:06:02.605Z,17.20
2022-10-05T20:08:39.433Z,18.38
2022-10-05T20:11:11.857Z,17.55
2022-10-05T20:13:41.783Z,16.02
2022-10-05T20:16:38.101Z,15.27
2022-10-05T20:19:47.385Z,13.25
2022-10-05T20:22:28.829Z,17.27
2022-10-05T20:25:01.267Z,12.75
2022-10-05T20:27:39.814Z,13.85
2022-10-05T20:30:07.931Z,13.23
2022-10-05T20:32:34.347Z,14.27
2022-10-05T20:35:00.797Z,11.73
2022-10-05T20:37:29.342Z,15.43
2022-10-05T20:39:55.804Z,11.73
2022-10-05T20:42:23.734Z,14.25
2022-10-05T20:44:55.755Z,17.80
2022-10-05T20:47:23.461Z,17.10
2022-10-05T20:49:50.086Z,16.13
2022-10-05T20:52:16.545Z,19.58
2022-10-05T20:54:43.136Z,18.75
2022-10-05T20:57:09.821Z,21.73
2022-10-05T20:59:38.898Z,20.13
2022-10-05T21:02:06.013Z,16.77
2022-10-05T21:04:40.297Z,14.63
2022-10-05T21:07:07.738Z,16.10
2022-10-05T21:09:34.229Z,18.25
2022-10-05T21:12:00.638Z,24.80
2022-10-05T21:14:30.514Z,22.73
2022-10-05T21:16:57.014Z,23.38
2022-10-05T21:19:23.421Z,27.38
2022-10-05T21:21:49.862Z,31.10
2022-10-05T21:24:18.571Z,25.25
2022-10-05T21:26:45.129Z,24.40
2022-10-05T21:29:14.313Z,28.38
2022-10-05T21:31:41.107Z,21.48
2022-10-05T21:34:08.479Z,18.63
2022-10-05T21:36:35.290Z,15.07
2022-10-05T21:39:01.819Z,16.00
2022-10-05T21:41:28.208Z,12.43
2022-10-05T21:43:54.773Z,19.02
2022-10-05T21:46:26.357Z,16.60
2022-10-05T21:48:56.168Z,17.10
2022-10-05T21:51:24.931Z,15.25
2022-10-05T21:53:55.744Z,17.77
2022-10-05T21:56:27.419Z,13.48
2022-10-05T21:58:54.389Z,13.05
2022-10-05T22:01:22.810Z,12.40
2022-10-05T22:03:54.478Z,12.90
2022-10-05T22:06:20.973Z,17.23
2022-10-05T22:08:47.468Z,11.07
2022-10-05T22:11:19.465Z,10.27
2022-10-05T22:13:49.059Z,7.68
2022-10-05T22:16:18.206Z,9.13
2022-10-05T22:18:47.492Z,10.75
2022-10-05T22:21:17.282Z,12.25
2022-10-05T22:23:45.885Z,9.63
2022-10-05T22:26:16.628Z,10.48
2022-10-05T22:28:43.651Z,14.73
2022-10-05T22:31:12.391Z,10.70
2022-10-05T22:33:48.866Z,9.85
2022-10-05T22:36:15.920Z,8.88
2022-10-05T22:38:42.407Z,10.02
2022-10-05T22:41:12.711Z,9.23
2022-10-05T22:43:39.331Z,8.63
2022-10-05T22:46:13.240Z,8.90
2022-10-05T22:48:40.247Z,7.82
2022-10-05T22:51:08.446Z,6.90
2022-10-05T22:53:35.433Z,7.93
2022-10-05T22:56:09.836Z,6.13
2022-10-05T22:58:39.595Z,7.78
2022-10-05T23:01:09.634Z,6.47
2022-10-05T23:03:36.633Z,8.85
2022-10-05T23:06:06.399Z,7.93
2022-10-05T23:08:34.879Z,6.97
2022-10-05T23:11:06.534Z,7.95
2022-10-05T23:13:33.478Z,7.65
2022-10-05T23:16:07.795Z,5.70
2022-10-05T23:18:34.314Z,5.93
2022-10-05T23:21:00.982Z,6.75
2022-10-05T23:23:27.524Z,11.60
2022-10-05T23:25:59.705Z,7.97
2022-10-05T23:28:27.551Z,8.65
2022-10-05T23:31:01.551Z,6.78
2022-10-05T23:36:02.392Z,7.28
2022-10-05T23:38:29.979Z,4.82
2022-10-05T23:40:58.816Z,7.72
2022-10-05T23:43:25.701Z,7.47
2022-10-05T23:45:52.481Z,5.30
2022-10-05T23:48:19.052Z,7.20
2022-10-05T23:50:46.788Z,5.15
2022-10-05T23:53:14.153Z,8.40
2022-10-05T23:55:40.549Z,8.45
2022-10-05T23:58:07.057Z,4.43
